Piper — WDE6779 — position and weather

sailwx.info

Track history (hours):
 
Tides and Currents Weather Stations Pressure Air Temp Water Temp Dewpoint Dewpoint Depression Visibility Wind Speed Wind Dir Waves Ship Positions

Piper

Owner: ADS MARINE, LLC, MORGAN CITY, LA. More information available from US FCC via Universal Licensing System and Coast Guard Vessel Documentation Center.

Last reported at 2017-Jan-17 23:07 UTC. Time now 2017-Jan-19 21:30 UTC.
Position N 29°33' W 090°24'.

Length 40 m; draft 3 m.

Type: Cargo ship. MMSI: 367384720.

Date/timePositionNaut miles runAvg speedWind from/ knotsBaromVisibWave heightAir tempDewpointWater temp
2017-Jan-17 23:07N 29°33' W 090°24'5 8.0
2017-Jan-17 22:32N 29°34' W 090°29'8 7.7
2017-Jan-17 21:33N 29°35' W 090°38'5 4.8
2017-Jan-17 20:33N 29°34' W 090°43'9 7.7
2017-Jan-17 19:25N 29°32' W 090°53'61 2.8
2017-Jan-16 21:33N 29°50' W 091°60'8 8.0
2017-Jan-16 20:33N 29°47' W 092°09'2 2.0
2017-Jan-16 19:33N 29°47' W 092°11'0 0.0
2017-Jan-16 18:33N 29°47' W 092°11'0 0.0
2017-Jan-16 17:33N 29°47' W 092°11'0 0.3
2017-Jan-16 16:33N 29°47' W 092°11'0 0.0
2017-Jan-16 15:33N 29°47' W 092°11'1 0.5
2017-Jan-16 14:33N 29°47' W 092°11'7 6.6
2017-Jan-16 13:33N 29°41' W 092°15'7 6.9
2017-Jan-16 12:32N 29°35' W 092°18'  
2017-Jan-10 14:33N 29°33' W 092°18'7 6.9
2017-Jan-10 13:33N 29°39' W 092°16'7 6.6
2017-Jan-10 12:33N 29°45' W 092°13'3 2.6
2017-Jan-10 11:33N 29°47' W 092°10'0 0.0
2017-Jan-10 10:33N 29°47' W 092°10'0 0.0
2017-Jan-10 09:33N 29°47' W 092°10'0 0.0
2017-Jan-10 08:33N 29°47' W 092°10'0 0.0
2017-Jan-10 07:33N 29°47' W 092°10'0 0.0
2017-Jan-10 06:33N 29°47' W 092°10'0 0.0
2017-Jan-10 05:33N 29°47' W 092°10'0 0.0
2017-Jan-10 04:33N 29°47' W 092°10'0 0.0
2017-Jan-10 03:33N 29°47' W 092°10'0 0.1
2017-Jan-10 02:33N 29°47' W 092°10'1 0.9
2017-Jan-10 01:33N 29°47' W 092°11'0 0.1
2017-Jan-10 00:33N 29°47' W 092°11'0 0.0
2017-Jan-09 23:33N 29°47' W 092°11'0 0.0
2017-Jan-09 22:33N 29°47' W 092°11'0 0.0
2017-Jan-09 21:33N 29°47' W 092°11'4 3.7
2017-Jan-09 20:33N 29°44' W 092°14'8 7.7
2017-Jan-09 19:33N 29°37' W 092°17'  
Track history (hours):
 
Tides and Currents Weather Stations Pressure Air Temp Water Temp Dewpoint Dewpoint Depression Visibility Wind Speed Wind Dir Waves Ship Positions

Piper

Owner: ADS MARINE, LLC, MORGAN CITY, LA. More information available from US FCC via Universal Licensing System and Coast Guard Vessel Documentation Center.

Last reported at 2017-Jan-17 23:07 UTC. Time now 2017-Jan-19 21:30 UTC.
Position N 29°33' W 090°24'.

Length 40 m; draft 3 m.

Type: Cargo ship. MMSI: 367384720.

Date/timePositionNaut miles runAvg speedWind from/ knotsBaromVisibWave heightAir tempDewpointWater temp
2017-Jan-17 23:07N 29°33' W 090°24'5 8.0
2017-Jan-17 22:32N 29°34' W 090°29'8 7.7
2017-Jan-17 21:33N 29°35' W 090°38'5 4.8
2017-Jan-17 20:33N 29°34' W 090°43'9 7.7
2017-Jan-17 19:25N 29°32' W 090°53'61 2.8
2017-Jan-16 21:33N 29°50' W 091°60'8 8.0
2017-Jan-16 20:33N 29°47' W 092°09'2 2.0
2017-Jan-16 19:33N 29°47' W 092°11'0 0.0
2017-Jan-16 18:33N 29°47' W 092°11'0 0.0
2017-Jan-16 17:33N 29°47' W 092°11'0 0.3
2017-Jan-16 16:33N 29°47' W 092°11'0 0.0
2017-Jan-16 15:33N 29°47' W 092°11'1 0.5
2017-Jan-16 14:33N 29°47' W 092°11'7 6.6
2017-Jan-16 13:33N 29°41' W 092°15'7 6.9
2017-Jan-16 12:32N 29°35' W 092°18'  
2017-Jan-10 14:33N 29°33' W 092°18'7 6.9
2017-Jan-10 13:33N 29°39' W 092°16'7 6.6
2017-Jan-10 12:33N 29°45' W 092°13'3 2.6
2017-Jan-10 11:33N 29°47' W 092°10'0 0.0
2017-Jan-10 10:33N 29°47' W 092°10'0 0.0
2017-Jan-10 09:33N 29°47' W 092°10'0 0.0
2017-Jan-10 08:33N 29°47' W 092°10'0 0.0
2017-Jan-10 07:33N 29°47' W 092°10'0 0.0
2017-Jan-10 06:33N 29°47' W 092°10'0 0.0
2017-Jan-10 05:33N 29°47' W 092°10'0 0.0
2017-Jan-10 04:33N 29°47' W 092°10'0 0.0
2017-Jan-10 03:33N 29°47' W 092°10'0 0.1
2017-Jan-10 02:33N 29°47' W 092°10'1 0.9
2017-Jan-10 01:33N 29°47' W 092°11'0 0.1
2017-Jan-10 00:33N 29°47' W 092°11'0 0.0
2017-Jan-09 23:33N 29°47' W 092°11'0 0.0
2017-Jan-09 22:33N 29°47' W 092°11'0 0.0
2017-Jan-09 21:33N 29°47' W 092°11'4 3.7
2017-Jan-09 20:33N 29°44' W 092°14'8 7.7
2017-Jan-09 19:33N 29°37' W 092°17'  

Dump ship's entire track history